Time;durP1;ratioP1;P1;durP2;ratioP2;P2;SDS_P1;SDS_P2;PMS_P1;PMS_P2;Temp;Humidity;BMP_temperature;BMP_pressure;BME280_temperature;BME280_humidity;BME280_pressure;Samples;Min_cycle;Max_cycle;Signal;HPM_P1;HPM_P2
2023/03/13 00:00:21;;;;;;;8.50;3.90;;;;;;;;;;5028488;28;20438;-50
2023/03/13 00:02:49;;;;;;;7.90;4.03;;;;;;;;;;5006540;28;22019;-51
2023/03/13 00:05:16;;;;;;;8.37;3.17;;;;;;;;;;5042984;28;20471;-51
2023/03/13 00:07:42;;;;;;;9.43;4.00;;;;;;;;;;5001428;28;21088;-51
2023/03/13 00:10:08;;;;;;;7.93;2.73;;;;;;;;;;5038595;28;20434;-52
2023/03/13 00:12:34;;;;;;;6.93;3.97;;;;;;;;;;4991488;28;20224;-51
2023/03/13 00:15:00;;;;;;;11.47;3.87;;;;;;;;;;5029378;28;20437;-52
2023/03/13 00:17:26;;;;;;;11.03;3.30;;;;;;;;;;5035642;28;20491;-51
2023/03/13 00:19:52;;;;;;;8.63;4.13;;;;;;;;;;5039695;28;20522;-50
2023/03/13 00:22:17;;;;;;;9.20;3.50;;;;;;;;;;5032037;28;20505;-52
2023/03/13 00:24:45;;;;;;;12.50;3.57;;;;;;;;;;5028567;28;20466;-51
2023/03/13 00:27:11;;;;;;;11.83;3.30;;;;;;;;;;5000457;28;22365;-51
2023/03/13 00:29:37;;;;;;;7.67;3.53;;;;;;;;;;5026994;28;20457;-51
2023/03/13 00:32:03;;;;;;;12.23;3.97;;;;;;;;;;5026646;28;20483;-51
2023/03/13 00:34:29;;;;;;;6.60;3.57;;;;;;;;;;5040907;28;20442;-51
2023/03/13 00:36:55;;;;;;;9.97;3.77;;;;;;;;;;4981606;28;20450;-54
2023/03/13 00:39:21;;;;;;;9.73;2.60;;;;;;;;;;5032106;28;20492;-50
2023/03/13 00:41:47;;;;;;;7.03;3.37;;;;;;;;;;4994538;28;20446;-51
2023/03/13 00:44:13;;;;;;;9.63;4.50;;;;;;;;;;5032579;28;20431;-52
2023/03/13 00:46:40;;;;;;;6.10;3.00;;;;;;;;;;5028188;28;20447;-51
2023/03/13 00:49:06;;;;;;;11.53;3.33;;;;;;;;;;5020120;28;20438;-52
2023/03/13 00:51:32;;;;;;;9.90;3.03;;;;;;;;;;5034178;28;20493;-53
2023/03/13 00:54:01;;;;;;;6.93;4.43;;;;;;;;;;5032467;28;20950;-52
2023/03/13 00:56:27;;;;;;;7.43;3.30;;;;;;;;;;5030602;28;20447;-51
2023/03/13 00:58:53;;;;;;;12.40;3.30;;;;;;;;;;5010815;28;20434;-51
2023/03/13 01:01:20;;;;;;;5.40;2.60;;;;;;;;;;5038136;28;20446;-52
2023/03/13 01:03:47;;;;;;;8.90;2.30;;;;;;;;;;5033880;28;20882;-53
2023/03/13 01:06:14;;;;;;;9.60;3.60;;;;;;;;;;5040085;28;20998;-52
2023/03/13 01:08:40;;;;;;;5.57;2.73;;;;;;;;;;5009187;28;20451;-52
2023/03/13 01:11:07;;;;;;;4.73;2.73;;;;;;;;;;5025325;28;20534;-52
2023/03/13 01:13:33;;;;;;;4.83;2.40;;;;;;;;;;4985549;28;20465;-52
2023/03/13 01:16:03;;;;;;;5.97;2.70;;;;;;;;;;5040346;28;20957;-52
2023/03/13 01:18:28;;;;;;;3.60;2.17;;;;;;;;;;5012832;28;20442;-51
2023/03/13 01:20:54;;;;;;;8.20;2.30;;;;;;;;;;5031751;28;20450;-52
2023/03/13 01:23:20;;;;;;;11.33;4.13;;;;;;;;;;5003280;28;20442;-53
2023/03/13 01:25:46;;;;;;;6.30;2.57;;;;;;;;;;5028107;28;20449;-52
2023/03/13 01:28:12;;;;;;;9.20;3.03;;;;;;;;;;5008204;28;20757;-51
2023/03/13 01:30:39;;;;;;;10.07;4.07;;;;;;;;;;5037201;28;20454;-52
2023/03/13 01:33:05;;;;;;;3.57;2.50;;;;;;;;;;5032988;28;21109;-50
2023/03/13 01:35:31;;;;;;;5.33;2.83;;;;;;;;;;5041475;28;20558;-51
2023/03/13 01:38:01;;;;;;;3.23;2.47;;;;;;;;;;5010642;28;20456;-48
2023/03/13 01:40:27;;;;;;;5.57;2.43;;;;;;;;;;5036655;28;20580;-52
2023/03/13 01:43:05;;;;;;;8.90;3.57;;;;;;;;;;5021108;28;21803;-53
2023/03/13 01:45:51;;;;;;;10.00;3.03;;;;;;;;;;5009973;28;20457;-52
2023/03/13 01:48:17;;;;;;;9.40;3.10;;;;;;;;;;5037015;28;20510;-51
2023/03/13 01:50:43;;;;;;;6.00;2.20;;;;;;;;;;5008659;28;20434;-53
2023/03/13 01:53:09;;;;;;;7.43;2.30;;;;;;;;;;5029115;28;20434;-52
2023/03/13 01:55:35;;;;;;;6.73;2.57;;;;;;;;;;4999270;28;20438;-52
2023/03/13 01:58:01;;;;;;;4.87;2.10;;;;;;;;;;5035648;28;20423;-51
2023/03/13 02:00:29;;;;;;;5.90;3.03;;;;;;;;;;5008159;28;20816;-51
2023/03/13 02:02:55;;;;;;;6.90;2.10;;;;;;;;;;5040795;28;20466;-51
2023/03/13 02:05:21;;;;;;;5.80;2.50;;;;;;;;;;5015980;28;20950;-52
2023/03/13 02:07:48;;;;;;;9.07;2.57;;;;;;;;;;5043868;28;20434;-53
2023/03/13 02:10:14;;;;;;;5.23;2.97;;;;;;;;;;5016489;28;20442;-53
2023/03/13 02:12:40;;;;;;;7.77;2.70;;;;;;;;;;5035768;28;20475;-53
2023/03/13 02:15:07;;;;;;;2.87;2.40;;;;;;;;;;4991973;28;20437;-52
2023/03/13 02:17:34;;;;;;;4.43;2.37;;;;;;;;;;5038191;28;20580;-53
2023/03/13 02:20:00;;;;;;;12.53;2.50;;;;;;;;;;5046971;28;20442;-53
2023/03/13 02:22:38;;;;;;;6.03;1.97;;;;;;;;;;5032237;28;20994;-52
2023/03/13 02:25:12;;;;;;;5.10;1.93;;;;;;;;;;5013892;28;21214;-51
2023/03/13 02:27:39;;;;;;;4.60;2.33;;;;;;;;;;5035678;28;20426;-51
2023/03/13 02:30:05;;;;;;;10.23;2.50;;;;;;;;;;5016324;28;21378;-52
2023/03/13 02:32:31;;;;;;;4.30;1.93;;;;;;;;;;5032460;28;20985;-53
2023/03/13 02:34:58;;;;;;;9.43;2.07;;;;;;;;;;5054525;28;20445;-52
2023/03/13 02:37:24;;;;;;;6.27;2.00;;;;;;;;;;5058565;28;20439;-52
2023/03/13 02:39:51;;;;;;;5.00;1.70;;;;;;;;;;5025379;28;20457;-52
2023/03/13 02:42:17;;;;;;;5.80;2.30;;;;;;;;;;5008839;28;20443;-52
2023/03/13 02:44:57;;;;;;;2.67;1.53;;;;;;;;;;5025144;28;20442;-52
2023/03/13 02:47:24;;;;;;;7.10;1.83;;;;;;;;;;5009089;28;20451;-51
2023/03/13 02:49:51;;;;;;;9.73;2.57;;;;;;;;;;5034999;28;20470;-51
2023/03/13 02:52:17;;;;;;;6.30;1.80;;;;;;;;;;5032796;28;20466;-50
2023/03/13 02:54:43;;;;;;;5.17;1.50;;;;;;;;;;5035615;28;21356;-51
2023/03/13 02:57:09;;;;;;;4.10;1.40;;;;;;;;;;5002095;28;20596;-51
2023/03/13 02:59:35;;;;;;;5.20;1.73;;;;;;;;;;5038392;28;20524;-50
2023/03/13 03:02:02;;;;;;;3.63;1.60;;;;;;;;;;5010647;28;20474;-51
2023/03/13 03:04:28;;;;;;;3.00;1.63;;;;;;;;;;5039896;28;22376;-51
2023/03/13 03:06:54;;;;;;;4.20;2.10;;;;;;;;;;5008997;28;20952;-51
2023/03/13 03:09:20;;;;;;;3.30;1.67;;;;;;;;;;5033246;28;20794;-54
2023/03/13 03:11:46;;;;;;;5.07;1.73;;;;;;;;;;5003907;28;20504;-52
2023/03/13 03:14:12;;;;;;;5.67;1.50;;;;;;;;;;5038697;28;20894;-54
2023/03/13 03:19:29;;;;;;;3.00;1.40;;;;;;;;;;5036810;28;20488;-52
2023/03/13 03:21:55;;;;;;;4.97;1.83;;;;;;;;;;5031271;28;20441;-52
2023/03/13 03:24:21;;;;;;;3.07;1.53;;;;;;;;;;5040840;28;20422;-54
2023/03/13 03:26:47;;;;;;;8.73;1.60;;;;;;;;;;5027730;28;20462;-52
2023/03/13 03:29:13;;;;;;;6.07;1.60;;;;;;;;;;5031273;28;20907;-52
2023/03/13 03:31:40;;;;;;;2.17;1.40;;;;;;;;;;5030003;28;20485;-51
2023/03/13 03:34:06;;;;;;;3.20;1.00;;;;;;;;;;5024978;28;20447;-54
2023/03/13 03:36:32;;;;;;;2.17;1.57;;;;;;;;;;5025953;28;20538;-54
2023/03/13 03:38:58;;;;;;;4.33;2.20;;;;;;;;;;5025077;28;20199;-54
2023/03/13 03:41:24;;;;;;;4.63;1.50;;;;;;;;;;5025016;28;20431;-52
2023/03/13 03:43:50;;;;;;;2.17;1.20;;;;;;;;;;5019002;28;20876;-54
2023/03/13 03:46:17;;;;;;;4.63;1.17;;;;;;;;;;5020845;28;20946;-51
2023/03/13 03:48:43;;;;;;;2.83;1.63;;;;;;;;;;4980330;28;20434;-54
2023/03/13 03:51:09;;;;;;;3.03;1.07;;;;;;;;;;5035401;28;20967;-53
2023/03/13 03:53:36;;;;;;;4.20;1.47;;;;;;;;;;5028026;28;20438;-52
2023/03/13 03:56:02;;;;;;;5.47;1.50;;;;;;;;;;5030163;28;20455;-54
2023/03/13 03:58:27;;;;;;;2.07;1.13;;;;;;;;;;5007314;28;20549;-53
2023/03/13 04:00:54;;;;;;;5.00;1.67;;;;;;;;;;5032869;28;20468;-53
2023/03/13 04:03:20;;;;;;;4.73;1.10;;;;;;;;;;5000801;28;20552;-53
2023/03/13 04:05:46;;;;;;;2.90;1.10;;;;;;;;;;5033672;28;21479;-53
2023/03/13 04:08:13;;;;;;;2.33;1.20;;;;;;;;;;5009082;28;20457;-53
2023/03/13 04:10:39;;;;;;;3.93;1.07;;;;;;;;;;5038179;28;20459;-56
2023/03/13 04:13:05;;;;;;;2.40;1.20;;;;;;;;;;5010140;28;20473;-52
2023/03/13 04:15:31;;;;;;;2.60;0.90;;;;;;;;;;5036868;28;20797;-54
2023/03/13 04:17:57;;;;;;;1.53;0.80;;;;;;;;;;4987928;28;24911;-53
2023/03/13 04:20:23;;;;;;;2.10;1.07;;;;;;;;;;5033607;28;20441;-52
2023/03/13 04:22:48;;;;;;;1.30;0.70;;;;;;;;;;5038869;28;20433;-52
2023/03/13 04:25:14;;;;;;;1.37;1.07;;;;;;;;;;5032339;28;20465;-54
2023/03/13 04:27:40;;;;;;;5.60;1.33;;;;;;;;;;5037125;28;20443;-53
2023/03/13 04:30:07;;;;;;;3.17;1.10;;;;;;;;;;5005839;28;20504;-52
2023/03/13 04:32:33;;;;;;;1.10;0.90;;;;;;;;;;5037031;28;20477;-53
2023/03/13 04:34:59;;;;;;;1.30;0.80;;;;;;;;;;5008015;28;20440;-51
2023/03/13 04:37:25;;;;;;;1.27;0.87;;;;;;;;;;5037727;28;20426;-52
2023/03/13 04:39:51;;;;;;;3.33;1.20;;;;;;;;;;5007874;28;20936;-52
2023/03/13 04:42:17;;;;;;;1.40;1.00;;;;;;;;;;5034894;28;20474;-54
2023/03/13 04:44:43;;;;;;;1.83;0.90;;;;;;;;;;5005566;28;20515;-53
2023/03/13 04:47:08;;;;;;;2.03;0.80;;;;;;;;;;5037319;28;20457;-53
2023/03/13 04:49:34;;;;;;;2.30;0.83;;;;;;;;;;4993078;28;20438;-52
2023/03/13 04:52:00;;;;;;;1.40;0.90;;;;;;;;;;5028159;28;20277;-52
2023/03/13 04:54:26;;;;;;;2.43;0.87;;;;;;;;;;5032249;28;20442;-53
2023/03/13 04:56:52;;;;;;;2.07;0.70;;;;;;;;;;5043198;28;20465;-52
2023/03/13 04:59:18;;;;;;;1.63;0.90;;;;;;;;;;5009215;28;20443;-53
2023/03/13 05:01:44;;;;;;;1.97;1.47;;;;;;;;;;5035628;28;20447;-53
2023/03/13 05:04:10;;;;;;;1.83;0.77;;;;;;;;;;5012733;28;20982;-53
2023/03/13 05:06:36;;;;;;;1.90;1.00;;;;;;;;;;5040874;28;20497;-54
2023/03/13 05:09:02;;;;;;;2.17;1.07;;;;;;;;;;5034627;28;21218;-52
2023/03/13 05:11:29;;;;;;;1.40;1.10;;;;;;;;;;5029677;28;20500;-55
2023/03/13 05:13:54;;;;;;;1.40;1.00;;;;;;;;;;5009425;28;23323;-54
2023/03/13 05:16:20;;;;;;;1.27;0.90;;;;;;;;;;5028335;28;20979;-54
2023/03/13 05:18:51;;;;;;;1.17;0.70;;;;;;;;;;5000437;28;20442;-52
2023/03/13 05:21:17;;;;;;;2.10;1.10;;;;;;;;;;5022864;28;20503;-55
2023/03/13 05:23:43;;;;;;;2.23;0.90;;;;;;;;;;5033710;28;20525;-56
2023/03/13 05:26:09;;;;;;;1.10;0.70;;;;;;;;;;5034104;28;20530;-52
2023/03/13 05:28:34;;;;;;;2.20;0.90;;;;;;;;;;5033129;28;20450;-52
2023/03/13 05:31:01;;;;;;;1.67;0.93;;;;;;;;;;5010768;28;20573;-52
2023/03/13 05:33:26;;;;;;;1.33;0.77;;;;;;;;;;5041578;28;21030;-51
2023/03/13 05:35:53;;;;;;;7.50;0.87;;;;;;;;;;5005021;28;20430;-51
2023/03/13 05:38:18;;;;;;;2.77;0.97;;;;;;;;;;5008341;28;20442;-53
2023/03/13 05:40:44;;;;;;;1.80;0.80;;;;;;;;;;5033832;28;20434;-53
2023/03/13 05:43:10;;;;;;;1.50;0.97;;;;;;;;;;5031150;28;21229;-50
2023/03/13 05:45:36;;;;;;;1.00;0.63;;;;;;;;;;5026139;28;20430;-53
2023/03/13 05:48:02;;;;;;;2.27;1.00;;;;;;;;;;5006078;28;20814;-53
2023/03/13 05:50:28;;;;;;;1.90;0.97;;;;;;;;;;5037158;28;20435;-53
2023/03/13 05:52:54;;;;;;;2.50;0.90;;;;;;;;;;4991770;28;20568;-54
2023/03/13 05:55:20;;;;;;;4.67;1.10;;;;;;;;;;5037752;28;20437;-53
2023/03/13 05:57:46;;;;;;;1.20;0.80;;;;;;;;;;4999098;28;20668;-53
2023/03/13 06:00:13;;;;;;;1.53;0.90;;;;;;;;;;5038215;28;20438;-54
2023/03/13 06:02:39;;;;;;;1.00;0.70;;;;;;;;;;4997767;28;20597;-53
2023/03/13 06:05:05;;;;;;;1.57;0.80;;;;;;;;;;5030186;28;20462;-54
2023/03/13 06:07:31;;;;;;;1.30;1.00;;;;;;;;;;5013199;28;20934;-51
2023/03/13 06:09:57;;;;;;;1.40;0.83;;;;;;;;;;5038430;28;20429;-53
2023/03/13 06:12:23;;;;;;;1.83;0.77;;;;;;;;;;5035387;28;20977;-55
2023/03/13 06:14:49;;;;;;;1.20;0.73;;;;;;;;;;5028325;28;20638;-52
2023/03/13 06:17:15;;;;;;;1.27;0.70;;;;;;;;;;5021186;28;20443;-52
2023/03/13 06:19:41;;;;;;;1.30;0.60;;;;;;;;;;5034209;28;20926;-53
2023/03/13 06:22:31;;;;;;;1.33;0.70;;;;;;;;;;5032398;28;24362;-49
2023/03/13 06:24:58;;;;;;;1.90;0.70;;;;;;;;;;5010745;28;20549;-52
2023/03/13 06:27:24;;;;;;;1.70;1.00;;;;;;;;;;5039955;28;20947;-52
2023/03/13 06:29:50;;;;;;;1.03;0.67;;;;;;;;;;5018262;28;20434;-51
2023/03/13 06:32:16;;;;;;;2.67;0.87;;;;;;;;;;5042276;28;20222;-53
2023/03/13 06:34:42;;;;;;;1.40;0.97;;;;;;;;;;5008241;28;20443;-53
2023/03/13 06:37:08;;;;;;;1.33;0.77;;;;;;;;;;5041008;28;20181;-53
2023/03/13 06:39:35;;;;;;;1.20;0.80;;;;;;;;;;5015222;28;20440;-51
2023/03/13 06:42:01;;;;;;;1.10;0.67;;;;;;;;;;5017098;28;20998;-52
2023/03/13 06:44:27;;;;;;;1.50;0.90;;;;;;;;;;5038422;28;20442;-51
2023/03/13 06:46:53;;;;;;;1.10;0.60;;;;;;;;;;5014138;28;20823;-50
2023/03/13 06:49:19;;;;;;;1.50;1.00;;;;;;;;;;5036296;28;20422;-52
2023/03/13 06:51:45;;;;;;;1.30;0.67;;;;;;;;;;5013945;28;20462;-51
2023/03/13 06:54:11;;;;;;;1.40;1.10;;;;;;;;;;5035847;28;20946;-52
2023/03/13 06:56:37;;;;;;;1.87;0.80;;;;;;;;;;4998849;28;20183;-52
2023/03/13 06:59:03;;;;;;;1.47;0.70;;;;;;;;;;5023444;28;21092;-54
2023/03/13 07:01:29;;;;;;;1.67;0.90;;;;;;;;;;5030879;28;20478;-52
2023/03/13 07:03:55;;;;;;;1.20;0.80;;;;;;;;;;5038549;28;20426;-53
2023/03/13 07:06:20;;;;;;;1.27;0.70;;;;;;;;;;5027068;28;20446;-51
2023/03/13 07:08:47;;;;;;;1.90;1.27;;;;;;;;;;5040164;28;20470;-52
2023/03/13 07:11:15;;;;;;;1.60;0.80;;;;;;;;;;5013263;28;20438;-52
2023/03/13 07:13:41;;;;;;;1.80;1.03;;;;;;;;;;5044607;28;20435;-53
2023/03/13 07:16:08;;;;;;;1.60;0.80;;;;;;;;;;5013932;28;20528;-52
2023/03/13 07:18:34;;;;;;;1.40;0.90;;;;;;;;;;5048516;28;20434;-53
2023/03/13 07:21:00;;;;;;;1.30;0.70;;;;;;;;;;5016264;28;20462;-52
2023/03/13 07:23:27;;;;;;;1.10;0.70;;;;;;;;;;5036946;28;20419;-51
2023/03/13 07:25:56;;;;;;;1.20;0.70;;;;;;;;;;5001429;28;20450;-51
2023/03/13 07:28:23;;;;;;;1.57;0.70;;;;;;;;;;5030179;28;20430;-53
2023/03/13 07:30:49;;;;;;;1.10;0.60;;;;;;;;;;5027176;28;20450;-54
2023/03/13 07:33:15;;;;;;;1.27;0.70;;;;;;;;;;5021239;28;20480;-53
2023/03/13 07:35:46;;;;;;;1.73;1.00;;;;;;;;;;5039067;28;20563;-53
2023/03/13 07:38:12;;;;;;;2.30;0.97;;;;;;;;;;5015527;28;20452;-52
2023/03/13 07:40:38;;;;;;;3.73;0.90;;;;;;;;;;5041904;28;20843;-52
2023/03/13 07:43:04;;;;;;;1.50;0.70;;;;;;;;;;5019288;28;20433;-53
2023/03/13 07:45:30;;;;;;;1.90;0.83;;;;;;;;;;5037845;28;20462;-53
2023/03/13 07:47:56;;;;;;;1.40;0.73;;;;;;;;;;5014341;28;20454;-53
2023/03/13 07:50:22;;;;;;;1.57;1.00;;;;;;;;;;5044572;28;20444;-53
2023/03/13 07:52:48;;;;;;;1.60;0.70;;;;;;;;;;5012188;28;20847;-53
2023/03/13 07:55:14;;;;;;;2.10;0.93;;;;;;;;;;5030182;28;20442;-53
2023/03/13 07:57:40;;;;;;;1.20;0.80;;;;;;;;;;4995559;28;20431;-56
2023/03/13 08:00:10;;;;;;;1.43;1.10;;;;;;;;;;5042034;28;20434;-52
2023/03/13 08:02:36;;;;;;;1.20;0.70;;;;;;;;;;5035650;28;20950;-52
2023/03/13 08:05:02;;;;;;;4.90;1.10;;;;;;;;;;5039695;28;20431;-52
2023/03/13 08:07:28;;;;;;;1.97;1.40;;;;;;;;;;5030504;28;20912;-52
2023/03/13 08:09:54;;;;;;;1.33;0.70;;;;;;;;;;5040465;28;20454;-53
2023/03/13 08:12:20;;;;;;;1.47;0.80;;;;;;;;;;5012696;28;21070;-53
2023/03/13 08:14:46;;;;;;;1.80;1.03;;;;;;;;;;5039293;28;20932;-53
2023/03/13 08:17:12;;;;;;;1.83;0.70;;;;;;;;;;5012348;28;21995;-52
2023/03/13 08:19:38;;;;;;;1.87;1.10;;;;;;;;;;5042019;28;20445;-51
2023/03/13 08:22:04;;;;;;;1.70;0.90;;;;;;;;;;5027342;28;21439;-54
2023/03/13 08:24:30;;;;;;;1.50;0.90;;;;;;;;;;5034750;28;20245;-52
2023/03/13 08:26:57;;;;;;;1.70;1.00;;;;;;;;;;5017307;28;20625;-53
2023/03/13 08:29:23;;;;;;;1.13;0.80;;;;;;;;;;5020925;28;20442;-53
2023/03/13 08:31:51;;;;;;;2.30;0.97;;;;;;;;;;5007098;28;20478;-54
2023/03/13 08:34:17;;;;;;;3.67;1.00;;;;;;;;;;5047213;28;20568;-53
2023/03/13 08:36:43;;;;;;;1.53;1.00;;;;;;;;;;5040828;28;20522;-53
2023/03/13 08:39:27;;;;;;;1.50;0.90;;;;;;;;;;5046150;28;20433;-53
2023/03/13 08:41:53;;;;;;;1.30;0.83;;;;;;;;;;5045073;28;20430;-53
2023/03/13 08:44:19;;;;;;;1.30;0.90;;;;;;;;;;5044595;28;20437;-53
2023/03/13 08:46:46;;;;;;;1.97;0.90;;;;;;;;;;5013923;28;20442;-54
2023/03/13 08:49:12;;;;;;;1.80;1.00;;;;;;;;;;5036878;28;21024;-52
2023/03/13 08:51:39;;;;;;;1.27;0.90;;;;;;;;;;5013265;28;20465;-54
2023/03/13 08:54:05;;;;;;;1.60;1.10;;;;;;;;;;5041324;28;20438;-53
2023/03/13 08:56:31;;;;;;;1.20;0.70;;;;;;;;;;5008189;28;20646;-53
2023/03/13 08:58:58;;;;;;;1.80;1.03;;;;;;;;;;5034353;28;20530;-52
2023/03/13 09:01:25;;;;;;;1.60;0.80;;;;;;;;;;4995820;28;20453;-52
2023/03/13 09:03:51;;;;;;;2.57;1.10;;;;;;;;;;5010055;28;20438;-54
2023/03/13 09:06:17;;;;;;;2.50;1.00;;;;;;;;;;5041162;28;20900;-53
2023/03/13 09:08:43;;;;;;;2.40;1.30;;;;;;;;;;5015778;28;21688;-53
2023/03/13 09:11:10;;;;;;;3.37;1.10;;;;;;;;;;5036638;28;20947;-52
2023/03/13 09:13:37;;;;;;;2.00;1.03;;;;;;;;;;5020948;28;21881;-52
2023/03/13 09:16:04;;;;;;;1.23;0.70;;;;;;;;;;5037128;28;20913;-52
2023/03/13 09:18:30;;;;;;;1.87;1.10;;;;;;;;;;5020060;28;22956;-52
2023/03/13 09:20:56;;;;;;;3.10;1.07;;;;;;;;;;5031147;28;20454;-52
2023/03/13 09:23:23;;;;;;;1.30;0.90;;;;;;;;;;5039115;28;20545;-52
2023/03/13 09:25:49;;;;;;;4.37;1.23;;;;;;;;;;5044536;28;20458;-52
2023/03/13 09:28:15;;;;;;;1.20;0.70;;;;;;;;;;5035349;28;20889;-54
2023/03/13 09:30:41;;;;;;;1.60;1.00;;;;;;;;;;5020341;28;20443;-52
2023/03/13 09:33:26;;;;;;;1.87;0.93;;;;;;;;;;5032935;28;20493;-53
2023/03/13 09:35:54;;;;;;;3.57;0.90;;;;;;;;;;5016961;28;20442;-53
2023/03/13 09:38:20;;;;;;;4.27;0.90;;;;;;;;;;5017783;28;20446;-51
2023/03/13 09:40:49;;;;;;;2.23;0.80;;;;;;;;;;5051178;28;20431;-52
2023/03/13 09:43:26;;;;;;;3.17;1.00;;;;;;;;;;5039091;28;20971;-53
2023/03/13 09:45:53;;;;;;;2.07;1.20;;;;;;;;;;5055510;28;20474;-53
2023/03/13 09:48:29;;;;;;;2.33;1.57;;;;;;;;;;5017070;28;20457;-53
2023/03/13 09:51:14;;;;;;;1.73;0.90;;;;;;;;;;4988701;28;20820;-53
2023/03/13 09:53:48;;;;;;;2.17;1.10;;;;;;;;;;5038077;28;20482;-53
2023/03/13 09:56:16;;;;;;;1.50;1.07;;;;;;;;;;5039713;28;20479;-54
2023/03/13 09:58:43;;;;;;;1.67;0.93;;;;;;;;;;5042332;28;20505;-51
2023/03/13 10:01:09;;;;;;;1.50;1.10;;;;;;;;;;5009191;28;20451;-54
2023/03/13 10:03:39;;;;;;;1.50;1.00;;;;;;;;;;5043082;28;20438;-52
2023/03/13 10:06:06;;;;;;;1.70;0.90;;;;;;;;;;4998554;28;20446;-52
2023/03/13 10:08:33;;;;;;;2.87;1.07;;;;;;;;;;5035081;28;20434;-51
2023/03/13 10:11:23;;;;;;;1.70;1.03;;;;;;;;;;5023260;28;20446;-51
2023/03/13 10:13:51;;;;;;;2.50;1.03;;;;;;;;;;5060237;28;20477;-51
2023/03/13 10:16:17;;;;;;;1.60;1.00;;;;;;;;;;5040463;28;21061;-51
2023/03/13 10:18:44;;;;;;;1.83;1.07;;;;;;;;;;5044458;28;20514;-51
2023/03/13 10:21:17;;;;;;;3.07;1.30;;;;;;;;;;5026816;28;20184;-53
2023/03/13 10:23:46;;;;;;;4.07;1.13;;;;;;;;;;5039820;28;20466;-53
2023/03/13 10:26:16;;;;;;;2.30;0.90;;;;;;;;;;5037005;28;20426;-52
2023/03/13 10:28:42;;;;;;;2.10;0.90;;;;;;;;;;5041312;28;20524;-52
2023/03/13 10:31:20;;;;;;;4.40;1.10;;;;;;;;;;5020573;28;21038;-52
2023/03/13 10:33:46;;;;;;;2.57;1.43;;;;;;;;;;5044219;28;21018;-52
2023/03/13 10:36:19;;;;;;;4.77;2.07;;;;;;;;;;5021963;28;20792;-52
2023/03/13 10:38:51;;;;;;;1.70;0.97;;;;;;;;;;5015279;28;21014;-52
2023/03/13 10:41:23;;;;;;;2.77;1.50;;;;;;;;;;5055618;28;20434;-51
2023/03/13 10:43:50;;;;;;;2.47;1.50;;;;;;;;;;5036411;28;21020;-51
2023/03/13 10:46:24;;;;;;;3.43;1.43;;;;;;;;;;5044070;28;20466;-53
2023/03/13 10:48:50;;;;;;;3.80;1.40;;;;;;;;;;5028403;28;20477;-53
2023/03/13 10:51:20;;;;;;;2.70;1.40;;;;;;;;;;5044635;28;20458;-51
2023/03/13 10:53:46;;;;;;;2.57;1.40;;;;;;;;;;5014994;28;20260;-51
2023/03/13 10:56:13;;;;;;;2.97;1.50;;;;;;;;;;5033429;28;20528;-51
2023/03/13 10:58:43;;;;;;;5.80;2.07;;;;;;;;;;5023493;28;20962;-52
2023/03/13 11:01:09;;;;;;;3.10;1.83;;;;;;;;;;5035364;28;20446;-50
2023/03/13 11:03:35;;;;;;;4.83;1.87;;;;;;;;;;5001157;28;20459;-51
2023/03/13 11:06:02;;;;;;;2.17;1.43;;;;;;;;;;5037117;28;20442;-52
2023/03/13 11:08:28;;;;;;;5.30;1.40;;;;;;;;;;4999356;28;20188;-51
2023/03/13 11:10:56;;;;;;;2.73;1.90;;;;;;;;;;5040521;28;20965;-52
2023/03/13 11:13:30;;;;;;;2.70;1.43;;;;;;;;;;5014571;28;20474;-51
2023/03/13 11:16:00;;;;;;;2.37;1.40;;;;;;;;;;5041974;28;20422;-51
2023/03/13 11:18:41;;;;;;;2.03;1.40;;;;;;;;;;5037323;28;20435;-52
2023/03/13 11:21:08;;;;;;;2.83;1.77;;;;;;;;;;5035923;28;20435;-52
2023/03/13 11:23:36;;;;;;;2.53;1.60;;;;;;;;;;5016466;28;20990;-53
2023/03/13 11:26:05;;;;;;;1.50;1.13;;;;;;;;;;5040427;28;20517;-52
2023/03/13 11:28:46;;;;;;;2.83;1.57;;;;;;;;;;5015059;28;20459;-53
2023/03/13 11:31:18;;;;;;;4.20;1.77;;;;;;;;;;5016690;28;20442;-51
2023/03/13 11:34:03;;;;;;;1.83;1.30;;;;;;;;;;5041765;28;20448;-53
2023/03/13 11:36:32;;;;;;;2.00;1.50;;;;;;;;;;5009667;28;20604;-51
2023/03/13 11:39:23;;;;;;;1.80;1.40;;;;;;;;;;5058234;28;20497;-51
2023/03/13 11:41:49;;;;;;;2.37;1.57;;;;;;;;;;4996550;28;20445;-51
2023/03/13 11:44:18;;;;;;;2.20;1.60;;;;;;;;;;5041439;28;20438;-54
2023/03/13 11:46:54;;;;;;;3.20;1.50;;;;;;;;;;5031924;28;20434;-50
2023/03/13 11:49:23;;;;;;;6.00;1.60;;;;;;;;;;5026913;28;20458;-52
2023/03/13 11:52:12;;;;;;;2.77;1.30;;;;;;;;;;5037116;28;21002;-54
2023/03/13 11:54:46;;;;;;;2.43;1.40;;;;;;;;;;5053811;28;20450;-52
2023/03/13 11:57:34;;;;;;;2.77;1.80;;;;;;;;;;5024624;28;22080;-52
2023/03/13 12:00:17;;;;;;;2.60;1.73;;;;;;;;;;5042840;28;21001;-53
2023/03/13 12:02:51;;;;;;;2.60;1.70;;;;;;;;;;5037120;28;20449;-52
2023/03/13 12:05:18;;;;;;;2.43;1.67;;;;;;;;;;5056182;28;20504;-52
2023/03/13 12:07:57;;;;;;;3.97;1.70;;;;;;;;;;5015169;28;20462;-52
2023/03/13 12:10:23;;;;;;;2.10;1.43;;;;;;;;;;5044715;28;20425;-53
2023/03/13 12:12:51;;;;;;;4.13;1.60;;;;;;;;;;4995424;28;22010;-53
2023/03/13 12:15:18;;;;;;;2.13;1.17;;;;;;;;;;5055991;28;20514;-52
2023/03/13 12:17:49;;;;;;;2.97;1.50;;;;;;;;;;5038680;28;20446;-51
2023/03/13 12:20:28;;;;;;;2.97;1.47;;;;;;;;;;5043178;28;20438;-53
2023/03/13 12:22:57;;;;;;;2.10;1.20;;;;;;;;;;5041879;28;20515;-52
2023/03/13 12:25:24;;;;;;;2.77;1.40;;;;;;;;;;5048727;28;20517;-52
2023/03/13 12:28:11;;;;;;;2.10;1.30;;;;;;;;;;5029745;28;20873;-54
2023/03/13 12:30:41;;;;;;;2.43;1.60;;;;;;;;;;5028841;28;20453;-53
2023/03/13 12:33:19;;;;;;;2.60;1.57;;;;;;;;;;5041693;28;20474;-52
2023/03/13 12:35:47;;;;;;;2.03;1.20;;;;;;;;;;5038757;28;20422;-51
2023/03/13 12:38:24;;;;;;;2.30;1.10;;;;;;;;;;5015165;28;20458;-54
2023/03/13 12:40:50;;;;;;;2.70;1.27;;;;;;;;;;5042076;28;20422;-52
2023/03/13 12:43:16;;;;;;;2.40;1.50;;;;;;;;;;4998596;28;20523;-53
2023/03/13 12:45:47;;;;;;;3.17;1.20;;;;;;;;;;5042049;28;20435;-52
2023/03/13 12:48:17;;;;;;;2.67;1.60;;;;;;;;;;5047756;28;20188;-53
2023/03/13 12:50:43;;;;;;;2.00;1.10;;;;;;;;;;5017780;28;20987;-54
2023/03/13 12:53:15;;;;;;;2.63;1.67;;;;;;;;;;5017244;28;20945;-52
2023/03/13 12:55:44;;;;;;;3.00;1.30;;;;;;;;;;5042537;28;20172;-53
2023/03/13 12:58:13;;;;;;;2.27;1.00;;;;;;;;;;5013829;28;20703;-53
2023/03/13 13:00:40;;;;;;;3.13;1.27;;;;;;;;;;5023644;28;20472;-52
2023/03/13 13:03:17;;;;;;;3.80;1.30;;;;;;;;;;4987073;28;20442;-53
2023/03/13 13:06:02;;;;;;;3.50;1.50;;;;;;;;;;5012342;28;20442;-53
2023/03/13 13:08:28;;;;;;;2.50;1.37;;;;;;;;;;5021559;28;20831;-53
2023/03/13 13:10:54;;;;;;;3.00;0.90;;;;;;;;;;5019951;28;20461;-52
2023/03/13 13:13:30;;;;;;;3.07;1.20;;;;;;;;;;5033610;28;20843;-53
2023/03/13 13:16:07;;;;;;;3.17;1.20;;;;;;;;;;4985875;28;20190;-53
2023/03/13 13:18:33;;;;;;;5.63;1.53;;;;;;;;;;5035434;28;20470;-50
2023/03/13 13:21:02;;;;;;;2.07;1.27;;;;;;;;;;5004480;28;20459;-51
2023/03/13 13:23:32;;;;;;;3.17;1.50;;;;;;;;;;5038151;28;20518;-52
2023/03/13 13:26:18;;;;;;;2.70;1.10;;;;;;;;;;5037931;28;20438;-54
2023/03/13 13:28:44;;;;;;;2.90;1.00;;;;;;;;;;5042813;28;20432;-51
2023/03/13 13:31:29;;;;;;;2.07;1.17;;;;;;;;;;5006792;28;20437;-54
2023/03/13 13:33:55;;;;;;;3.40;1.30;;;;;;;;;;5036821;28;20198;-51
2023/03/13 13:36:21;;;;;;;1.90;0.90;;;;;;;;;;5011238;28;20442;-53
2023/03/13 13:38:47;;;;;;;1.90;0.90;;;;;;;;;;5031516;28;20183;-53
2023/03/13 13:41:13;;;;;;;1.83;0.87;;;;;;;;;;5025181;28;20271;-50
2023/03/13 13:43:39;;;;;;;1.67;0.80;;;;;;;;;;5039375;28;20441;-51
2023/03/13 13:46:11;;;;;;;2.70;1.40;;;;;;;;;;4997722;28;20967;-51
2023/03/13 13:48:38;;;;;;;2.37;1.20;;;;;;;;;;5035547;28;20472;-51
2023/03/13 13:51:10;;;;;;;4.07;1.10;;;;;;;;;;5026108;28;20434;-52
2023/03/13 13:53:42;;;;;;;13.53;1.17;;;;;;;;;;5034827;28;20449;-52
2023/03/13 13:56:27;;;;;;;3.07;1.10;;;;;;;;;;5005376;28;20817;-53
2023/03/13 13:58:59;;;;;;;3.30;1.83;;;;;;;;;;5028386;28;20483;-50
2023/03/13 14:01:25;;;;;;;4.20;1.10;;;;;;;;;;4980956;28;20442;-54
2023/03/13 14:03:51;;;;;;;1.60;1.00;;;;;;;;;;5038250;28;20866;-52
2023/03/13 14:06:21;;;;;;;2.80;1.77;;;;;;;;;;5026581;28;20447;-51
2023/03/13 14:08:47;;;;;;;6.13;1.30;;;;;;;;;;5046494;28;20426;-51
2023/03/13 14:11:13;;;;;;;1.80;1.00;;;;;;;;;;5010921;28;20512;-51
2023/03/13 14:13:40;;;;;;;1.97;1.03;;;;;;;;;;5032218;28;20870;-50
2023/03/13 14:16:26;;;;;;;1.70;0.90;;;;;;;;;;5011332;28;20427;-51
2023/03/13 14:18:52;;;;;;;2.27;1.00;;;;;;;;;;5026497;28;20501;-52
2023/03/13 14:21:26;;;;;;;2.13;1.20;;;;;;;;;;5029994;28;21797;-51
2023/03/13 14:23:52;;;;;;;3.77;1.87;;;;;;;;;;5034467;28;20450;-53
2023/03/13 14:26:19;;;;;;;3.87;1.30;;;;;;;;;;5043829;28;20430;-52
2023/03/13 14:29:05;;;;;;;2.03;1.00;;;;;;;;;;5040834;28;20482;-50
2023/03/13 14:31:31;;;;;;;2.17;1.30;;;;;;;;;;5041007;28;20469;-52
2023/03/13 14:33:58;;;;;;;3.17;1.13;;;;;;;;;;5029555;28;20548;-52
2023/03/13 14:36:24;;;;;;;3.93;1.47;;;;;;;;;;5042411;28;20437;-52
2023/03/13 14:38:50;;;;;;;1.80;1.07;;;;;;;;;;5045017;28;20438;-52
2023/03/13 14:41:23;;;;;;;2.50;1.07;;;;;;;;;;5034377;28;21516;-52
2023/03/13 14:43:49;;;;;;;3.13;1.00;;;;;;;;;;5036864;28;20454;-52
2023/03/13 14:46:28;;;;;;;13.33;1.20;;;;;;;;;;5037189;28;20570;-54
2023/03/13 14:48:55;;;;;;;2.17;1.17;;;;;;;;;;5014312;28;20434;-52
2023/03/13 14:51:25;;;;;;;2.97;1.27;;;;;;;;;;5044792;28;20438;-53